Time;durP1;ratioP1;P1;durP2;ratioP2;P2;SDS_P1;SDS_P2;PMS_P1;PMS_P2;Temp;Humidity;BMP_temperature;BMP_pressure;BME280_temperature;BME280_humidity;BME280_pressure;Samples;Min_cycle;Max_cycle;Signal;HPM_P1;HPM_P2
2022/02/09 00:04:05;;;;;;;12.07;10.23;;;5.10;99.90;;;;;;5012026;28;20057;-73
2022/02/09 00:06:48;;;;;;;11.88;9.68;;;5.10;99.90;;;;;;5006437;28;20018;-74
2022/02/09 00:09:14;;;;;;;12.30;9.50;;;5.20;99.90;;;;;;5011988;28;20030;-74
2022/02/09 00:11:42;;;;;;;13.27;10.68;;;5.20;99.90;;;;;;5011810;28;20403;-74
2022/02/09 00:17:15;;;;;;;13.65;10.20;;;5.20;99.90;;;;;;4996182;28;20036;-74
2022/02/09 00:27:55;;;;;;;14.13;10.68;;;5.10;99.90;;;;;;5004713;28;20029;-74
2022/02/09 01:51:12;;;;;;;19.17;15.68;;;5.10;99.90;;;;;;5015196;28;20449;-74
2022/02/09 01:56:42;;;;;;;15.07;12.60;;;5.10;99.90;;;;;;5034377;28;20455;-73
2022/02/09 01:59:07;;;;;;;15.38;11.25;;;5.10;99.90;;;;;;5034247;28;20052;-72
2022/02/09 02:01:34;;;;;;;13.00;10.75;;;5.20;99.90;;;;;;5027202;28;20025;-73
2022/02/09 02:04:00;;;;;;;14.30;11.32;;;5.20;99.90;;;;;;5030649;28;20021;-73
2022/02/09 02:06:25;;;;;;;13.13;11.20;;;5.20;99.90;;;;;;5034208;28;20033;-74
2022/02/09 02:08:53;;;;;;;15.63;13.23;;;5.20;99.90;;;;;;5032733;28;20403;-73
2022/02/09 02:11:26;;;;;;;15.60;13.95;;;5.00;99.90;;;;;;5033849;28;20017;-74
2022/02/09 02:14:11;;;;;;;15.50;12.90;;;5.00;99.90;;;;;;5032827;28;20033;-75
2022/02/09 02:16:44;;;;;;;15.25;10.98;;;5.00;99.90;;;;;;5017538;28;20021;-74
2022/02/09 02:19:28;;;;;;;13.75;11.10;;;5.00;99.90;;;;;;5022748;28;20093;-75
2022/02/09 02:22:09;;;;;;;12.73;10.00;;;5.00;99.90;;;;;;5021288;28;20097;-76
2022/02/09 02:25:08;;;;;;;12.10;9.77;;;5.10;99.90;;;;;;5034408;28;20031;-75
2022/02/09 02:28:09;;;;;;;12.15;10.18;;;5.00;99.90;;;;;;5033469;28;20152;-74
2022/02/09 02:36:00;;;;;;;13.45;9.90;;;5.00;99.90;;;;;;5033784;28;20029;-76
2022/02/09 02:46:31;;;;;;;11.18;9.38;;;5.10;99.90;;;;;;5033536;28;20026;-74
2022/02/09 02:56:54;;;;;;;9.65;8.65;;;5.10;99.90;;;;;;5017578;28;20033;-74
2022/02/09 03:13:32;;;;;;;10.98;9.63;;;5.10;99.90;;;;;;5033093;28;20053;-74
2022/02/09 03:16:03;;;;;;;13.98;10.25;;;5.10;99.90;;;;;;5018587;28;20068;-75
2022/02/09 03:19:10;;;;;;;12.43;10.15;;;5.10;99.90;;;;;;5024956;28;20084;-74
2022/02/09 03:21:31;;;;;;;14.05;9.90;;;5.10;99.90;;;;;;5014198;28;20034;-75
2022/02/09 03:24:04;;;;;;;11.85;9.23;;;5.10;99.90;;;;;;5032797;28;20025;-74
2022/02/09 03:26:51;;;;;;;14.60;10.80;;;5.10;99.90;;;;;;5032618;28;20025;-73
2022/02/09 03:43:17;;;;;;;11.48;9.85;;;5.00;99.90;;;;;;5032728;28;20514;-75
2022/02/09 03:46:08;;;;;;;14.88;10.27;;;5.10;99.90;;;;;;5032286;28;20049;-74
2022/02/09 03:48:40;;;;;;;11.52;9.85;;;5.10;99.90;;;;;;5032030;28;20041;-73
2022/02/09 03:58:49;;;;;;;13.30;10.27;;;5.10;99.90;;;;;;5032177;28;20108;-74
2022/02/09 04:01:16;;;;;;;14.00;10.50;;;5.10;99.90;;;;;;5030549;28;20499;-74
2022/02/09 04:03:43;;;;;;;10.60;9.50;;;5.10;99.90;;;;;;5031996;28;20511;-74
2022/02/09 04:06:09;;;;;;;10.57;9.30;;;5.10;99.90;;;;;;5032029;28;20033;-74
2022/02/09 04:08:41;;;;;;;12.52;10.10;;;5.10;99.90;;;;;;5031466;28;20033;-74
2022/02/09 04:11:13;;;;;;;12.23;10.93;;;5.10;99.90;;;;;;5031787;28;20038;-74
2022/02/09 04:13:55;;;;;;;12.93;10.07;;;5.10;99.90;;;;;;5030576;28;20472;-74
2022/02/09 04:16:44;;;;;;;13.13;10.60;;;5.10;99.90;;;;;;5016484;28;20030;-73
2022/02/09 04:19:25;;;;;;;14.68;10.77;;;5.10;99.90;;;;;;5030513;28;20021;-73
2022/02/09 04:38:39;;;;;;;12.30;11.07;;;5.00;99.90;;;;;;5031822;28;20057;-75
2022/02/09 04:44:07;;;;;;;12.57;11.13;;;5.10;99.90;;;;;;5032755;28;20029;-76
2022/02/09 04:49:32;;;;;;;12.25;10.85;;;5.10;99.90;;;;;;5016164;28;20053;-77
2022/02/09 04:54:42;;;;;;;13.93;11.40;;;5.10;99.90;;;;;;5031472;28;20433;-76
2022/02/09 04:57:16;;;;;;;12.25;10.93;;;5.10;99.90;;;;;;5029992;28;20037;-76
2022/02/09 04:59:53;;;;;;;12.38;10.27;;;5.10;99.90;;;;;;5031355;28;20013;-76
2022/02/09 05:24:18;;;;;;;14.48;11.07;;;5.10;99.90;;;;;;5022655;28;20087;-76
2022/02/09 05:27:03;;;;;;;13.18;10.95;;;5.10;99.90;;;;;;5009611;28;20391;-75
2022/02/09 05:29:29;;;;;;;15.30;13.13;;;5.10;99.90;;;;;;5021856;28;20151;-75
2022/02/09 05:31:55;;;;;;;12.93;10.70;;;5.10;99.90;;;;;;5025001;28;20065;-75
2022/02/09 05:34:20;;;;;;;12.10;10.52;;;5.20;99.90;;;;;;5027175;28;20052;-76
2022/02/09 05:36:46;;;;;;;12.02;10.80;;;5.10;99.90;;;;;;5024513;28;20096;-75
2022/02/09 05:39:13;;;;;;;10.75;9.60;;;5.10;99.90;;;;;;5018668;28;20026;-75
2022/02/09 05:41:44;;;;;;;10.95;9.77;;;5.10;99.90;;;;;;5024305;28;20018;-75
2022/02/09 05:44:11;;;;;;;11.15;9.35;;;5.10;99.90;;;;;;5021626;28;20039;-75
2022/02/09 05:52:02;;;;;;;12.18;9.45;;;5.20;99.90;;;;;;5028297;28;20108;-75
2022/02/09 05:57:26;;;;;;;11.10;9.90;;;5.10;99.90;;;;;;5017379;28;20546;-75
2022/02/09 05:59:51;;;;;;;15.15;13.52;;;5.20;99.90;;;;;;5027279;28;20072;-75
2022/02/09 06:02:19;;;;;;;16.95;14.60;;;5.20;99.90;;;;;;5020609;28;20021;-76
2022/02/09 06:04:45;;;;;;;18.15;15.30;;;5.20;99.90;;;;;;5021267;28;20438;-75
2022/02/09 06:07:13;;;;;;;23.70;18.92;;;5.10;99.90;;;;;;5016081;28;20022;-75
2022/02/09 06:09:39;;;;;;;49.05;37.33;;;5.10;99.90;;;;;;5033554;28;20017;-76
2022/02/09 06:15:01;;;;;;;13.50;12.07;;;5.10;99.90;;;;;;5021766;28;20030;-76
2022/02/09 06:20:13;;;;;;;21.63;19.63;;;5.20;99.90;;;;;;5027687;28;20097;-75
2022/02/09 06:22:38;;;;;;;12.85;11.75;;;5.20;99.90;;;;;;5026204;28;20025;-74
2022/02/09 06:25:04;;;;;;;14.13;12.73;;;5.10;99.90;;;;;;5026333;28;20030;-76
2022/02/09 06:27:30;;;;;;;26.77;24.10;;;5.10;99.90;;;;;;5026004;28;20029;-75
2022/02/09 06:29:55;;;;;;;58.67;52.35;;;5.10;99.90;;;;;;5020311;28;20550;-75
2022/02/09 06:32:21;;;;;;;28.45;25.45;;;5.10;99.90;;;;;;5020872;28;20387;-75
2022/02/09 06:34:47;;;;;;;26.80;23.77;;;5.10;99.90;;;;;;5013793;28;20041;-75
2022/02/09 06:37:25;;;;;;;34.60;28.15;;;5.10;99.90;;;;;;5026850;28;20033;-75
2022/02/09 06:39:58;;;;;;;49.53;36.50;;;5.10;99.90;;;;;;5009671;28;20024;-75
2022/02/09 06:42:25;;;;;;;57.33;42.42;;;5.20;99.90;;;;;;5018877;28;20022;-75
2022/02/09 06:44:53;;;;;;;71.50;55.45;;;5.20;99.90;;;;;;5032524;28;20667;-76
2022/02/09 06:47:23;;;;;;;121.90;93.80;;;5.20;99.90;;;;;;5025573;28;20047;-75
2022/02/09 06:49:57;;;;;;;118.32;88.43;;;5.20;99.90;;;;;;5023707;28;20034;-76
2022/02/09 06:52:22;;;;;;;23.15;20.60;;;5.20;99.90;;;;;;5015928;28;20053;-75
2022/02/09 06:55:08;;;;;;;19.00;17.00;;;5.20;99.90;;;;;;5023151;28;20500;-75
2022/02/09 06:57:56;;;;;;;15.70;13.98;;;5.30;99.90;;;;;;4994060;28;20018;-75
2022/02/09 07:00:21;;;;;;;10.88;9.77;;;5.30;99.90;;;;;;4999911;28;20018;-75
2022/02/09 07:02:47;;;;;;;10.70;9.60;;;5.30;99.90;;;;;;5023106;28;20029;-75
2022/02/09 07:05:13;;;;;;;10.52;9.18;;;5.20;99.90;;;;;;5026687;28;20105;-75
2022/02/09 07:07:40;;;;;;;9.88;8.88;;;5.20;99.90;;;;;;5023701;28;20041;-77
2022/02/09 07:10:06;;;;;;;9.60;8.60;;;5.20;99.90;;;;;;5030917;28;20026;-78
2022/02/09 07:12:32;;;;;;;11.32;10.18;;;5.20;99.90;;;;;;5015670;28;20546;-75
2022/02/09 07:14:58;;;;;;;10.40;9.45;;;5.20;99.90;;;;;;5009918;28;20400;-75
2022/02/09 07:17:24;;;;;;;10.35;8.20;;;5.30;99.90;;;;;;5032980;28;20017;-76
2022/02/09 07:19:56;;;;;;;10.00;8.38;;;5.30;99.90;;;;;;5018256;28;20030;-75
2022/02/09 07:22:27;;;;;;;8.55;7.60;;;5.20;99.90;;;;;;5021679;28;20022;-75
2022/02/09 07:25:04;;;;;;;10.18;8.38;;;5.30;99.90;;;;;;5025017;28;20037;-75
2022/02/09 07:30:26;;;;;;;8.93;8.13;;;5.30;99.90;;;;;;5018890;28;20172;-75
2022/02/09 07:32:57;;;;;;;9.25;8.35;;;5.30;99.90;;;;;;5014975;28;20026;-75
2022/02/09 07:35:23;;;;;;;9.48;8.57;;;5.30;99.90;;;;;;5024280;28;20025;-75
2022/02/09 07:37:49;;;;;;;9.13;8.25;;;5.30;99.90;;;;;;5027253;28;20037;-75
2022/02/09 07:40:17;;;;;;;8.75;7.85;;;5.30;99.90;;;;;;5012827;28;20029;-74
2022/02/09 07:42:50;;;;;;;7.90;7.13;;;5.40;99.90;;;;;;5024454;28;20380;-75
2022/02/09 07:48:00;;;;;;;9.57;8.57;;;5.40;99.90;;;;;;5006005;28;20037;-75
2022/02/09 07:52:55;;;;;;;8.48;7.63;;;5.30;99.90;;;;;;5021193;28;20044;-75
2022/02/09 07:55:20;;;;;;;9.93;8.90;;;5.40;99.90;;;;;;5016444;28;20471;-75
2022/02/09 07:57:46;;;;;;;9.73;8.73;;;5.30;99.90;;;;;;5012449;28;20145;-75
2022/02/09 08:00:13;;;;;;;9.88;8.88;;;5.40;99.90;;;;;;5014662;28;20152;-75
2022/02/09 08:02:39;;;;;;;10.98;9.88;;;5.40;99.90;;;;;;5021598;28;20037;-75
2022/02/09 08:05:05;;;;;;;10.57;9.48;;;5.40;99.90;;;;;;5025807;28;20491;-76
2022/02/09 08:07:31;;;;;;;12.85;11.43;;;5.40;99.90;;;;;;5012310;28;20111;-76
2022/02/09 08:09:58;;;;;;;12.27;10.98;;;5.40;99.90;;;;;;5013232;28;20116;-76
2022/02/09 08:33:21;;;;;;;12.38;11.15;;;5.60;99.90;;;;;;5006965;28;20030;-76
2022/02/09 08:35:50;;;;;;;11.95;10.15;;;5.50;99.90;;;;;;5030965;28;20033;-75
2022/02/09 08:38:16;;;;;;;16.80;13.85;;;5.50;99.90;;;;;;5018251;28;20032;-76
2022/02/09 08:40:45;;;;;;;13.40;12.00;;;5.70;99.90;;;;;;5018295;28;20037;-76
2022/02/09 08:43:11;;;;;;;12.93;11.52;;;5.70;99.90;;;;;;5023607;28;20057;-76
2022/02/09 08:45:37;;;;;;;11.35;9.77;;;5.70;99.90;;;;;;5025195;28;20041;-75
2022/02/09 08:48:03;;;;;;;9.55;8.23;;;5.70;99.90;;;;;;5019614;28;20633;-76
2022/02/09 08:50:29;;;;;;;9.30;8.40;;;5.70;99.90;;;;;;5007573;28;20109;-75
2022/02/09 08:52:54;;;;;;;9.98;8.93;;;5.70;99.90;;;;;;5020432;28;20376;-76
2022/02/09 08:55:21;;;;;;;10.52;9.02;;;5.70;99.90;;;;;;5032481;28;20034;-76
2022/02/09 08:57:47;;;;;;;12.48;9.95;;;5.80;99.90;;;;;;5035310;28;20028;-76
2022/02/09 09:00:30;;;;;;;13.63;11.18;;;5.80;99.90;;;;;;5021517;28;20033;-76
2022/02/09 09:05:47;;;;;;;9.43;8.52;;;5.90;99.90;;;;;;5021589;28;20026;-76
2022/02/09 09:25:26;;;;;;;7.55;6.85;;;6.30;99.90;;;;;;5022010;28;20092;-75
2022/02/09 10:01:16;;;;;;;7.20;6.50;;;7.00;99.90;;;;;;5021354;28;20064;-77
2022/02/09 10:03:30;;;;;;;7.45;6.28;;;7.10;99.90;;;;;;5022024;28;20518;-74
2022/02/09 10:34:14;;;;;;;4.50;4.10;;;7.50;99.90;;;;;;5033910;28;20037;-74
2022/02/09 10:36:52;;;;;;;8.05;5.32;;;7.50;99.90;;;;;;5028541;28;20021;-74
2022/02/09 10:39:31;;;;;;;6.22;4.72;;;7.50;99.90;;;;;;5025743;28;20495;-72
2022/02/09 10:42:15;;;;;;;4.80;4.40;;;7.40;99.90;;;;;;5025844;28;20052;-72
2022/02/09 10:44:48;;;;;;;4.65;4.22;;;7.50;99.90;;;;;;5026084;28;20026;-72
2022/02/09 10:47:27;;;;;;;4.40;4.00;;;7.50;99.90;;;;;;5028249;28;20509;-72
2022/02/09 10:50:15;;;;;;;5.68;3.72;;;7.50;99.90;;;;;;5022836;28;20033;-75
2022/02/09 10:52:46;;;;;;;4.50;3.47;;;7.50;99.90;;;;;;5006187;28;20395;-75
2022/02/09 10:55:46;;;;;;;3.17;2.88;;;7.50;99.90;;;;;;5019979;28;20027;-77
2022/02/09 10:58:24;;;;;;;3.92;3.38;;;7.50;99.90;;;;;;5021189;28;20049;-75
2022/02/09 11:00:50;;;;;;;10.82;5.75;;;7.60;99.90;;;;;;4999392;28;20492;-76
2022/02/09 11:03:20;;;;;;;4.47;3.40;;;7.60;99.90;;;;;;5013663;28;20034;-75
2022/02/09 11:05:48;;;;;;;4.55;3.83;;;7.70;99.90;;;;;;5007937;28;20039;-75
2022/02/09 11:08:14;;;;;;;3.97;3.58;;;7.60;99.90;;;;;;5017377;28;20448;-75
2022/02/09 11:10:40;;;;;;;5.38;3.75;;;7.70;99.90;;;;;;5019420;28;20034;-75
2022/02/09 11:13:11;;;;;;;4.07;3.60;;;7.80;99.90;;;;;;5019220;28;20040;-75
2022/02/09 11:15:39;;;;;;;5.93;3.30;;;7.80;99.90;;;;;;5004681;28;20099;-75
2022/02/09 11:18:05;;;;;;;3.83;3.17;;;7.80;99.90;;;;;;5021360;28;20030;-75
2022/02/09 11:20:32;;;;;;;4.00;3.40;;;7.90;99.90;;;;;;5022170;28;20071;-75
2022/02/09 11:22:58;;;;;;;3.30;2.92;;;7.90;99.90;;;;;;5019584;28;20033;-75
2022/02/09 11:25:42;;;;;;;4.28;2.92;;;7.90;99.90;;;;;;5022056;28;20036;-75
2022/02/09 11:28:30;;;;;;;3.40;3.10;;;7.90;99.90;;;;;;5017007;28;20026;-75
2022/02/09 11:31:19;;;;;;;4.28;3.58;;;7.90;99.90;;;;;;5019438;28;20022;-75
2022/02/09 11:34:06;;;;;;;4.85;3.65;;;8.00;99.90;;;;;;5021744;28;20026;-73
2022/02/09 11:36:43;;;;;;;4.55;3.50;;;8.00;99.90;;;;;;5009004;28;20049;-73
2022/02/09 11:39:17;;;;;;;3.78;3.30;;;8.00;99.90;;;;;;5019516;28;20084;-73
2022/02/09 11:41:58;;;;;;;4.28;3.30;;;8.00;99.90;;;;;;5031610;28;20026;-73
2022/02/09 11:45:24;;;;;;;4.47;3.55;;;8.00;99.90;;;;;;5019627;28;20049;-74
2022/02/09 12:09:45;;;;;;;3.55;2.95;;;8.00;99.90;;;;;;5012127;28;20034;-75
2022/02/09 12:12:17;;;;;;;4.38;3.40;;;8.10;99.90;;;;;;5011281;28;20503;-76
2022/02/09 12:15:11;;;;;;;4.03;2.92;;;8.10;99.90;;;;;;5019780;28;20467;-75
2022/02/09 12:20:31;;;;;;;4.80;3.67;;;8.20;99.90;;;;;;5015750;28;20062;-75
2022/02/09 12:25:44;;;;;;;;;;;8.00;99.90;;;;;;5024332;28;20111;-73
2022/02/09 12:28:18;;;;;;;6.07;3.70;;;8.00;99.90;;;;;;5025595;28;19916;-74
2022/02/09 12:30:45;;;;;;;5.50;4.00;;;8.00;99.90;;;;;;5029168;28;20025;-76
2022/02/09 12:33:25;;;;;;;4.43;3.60;;;8.00;99.90;;;;;;5031908;28;20115;-75
2022/02/09 12:35:51;;;;;;;5.35;3.88;;;8.00;99.90;;;;;;5023448;28;20057;-75
2022/02/09 12:38:28;;;;;;;5.60;3.97;;;8.00;99.90;;;;;;5019576;28;20388;-75
2022/02/09 12:41:10;;;;;;;5.65;3.88;;;8.00;99.90;;;;;;5018046;28;20476;-76
2022/02/09 12:44:04;;;;;;;4.63;3.83;;;8.00;99.90;;;;;;5008259;28;20113;-73
2022/02/09 12:46:35;;;;;;;5.47;3.50;;;8.10;99.90;;;;;;5008377;28;20034;-73
2022/02/09 12:49:05;;;;;;;6.53;4.13;;;8.10;99.90;;;;;;5015355;28;20026;-74
2022/02/09 12:51:31;;;;;;;4.53;3.90;;;8.20;99.90;;;;;;5031332;28;20030;-75
2022/02/09 12:53:59;;;;;;;5.95;3.67;;;8.20;99.90;;;;;;5014208;28;20503;-74
2022/02/09 12:56:30;;;;;;;3.53;3.00;;;8.10;99.90;;;;;;5022723;28;20032;-74
2022/02/09 12:59:12;;;;;;;3.60;3.08;;;8.20;99.90;;;;;;5031162;28;20039;-74
2022/02/09 13:01:48;;;;;;;4.43;3.33;;;8.20;99.90;;;;;;5018413;28;20026;-74
2022/02/09 13:04:38;;;;;;;3.63;3.10;;;8.10;99.90;;;;;;5029706;28;20026;-74
2022/02/09 13:07:09;;;;;;;4.38;3.53;;;8.10;99.90;;;;;;5025764;28;20022;-74
2022/02/09 13:09:35;;;;;;;4.05;3.38;;;8.20;99.90;;;;;;5024293;28;20057;-74
2022/02/09 13:12:02;;;;;;;4.75;3.72;;;8.20;99.90;;;;;;5031166;28;20518;-74
2022/02/09 13:17:31;;;;;;;4.50;2.83;;;8.40;99.90;;;;;;5008049;28;20041;-74
2022/02/09 13:25:43;;;;;;;4.90;3.70;;;8.40;99.90;;;;;;5031327;28;20113;-74
2022/02/09 14:05:35;;;;;;;3.30;3.00;;;8.70;99.90;;;;;;5025422;28;20499;-75
2022/02/09 14:13:26;;;;;;;3.67;3.10;;;8.90;99.90;;;;;;5021066;28;20376;-73
2022/02/09 14:56:31;;;;;;;3.63;3.08;;;9.60;99.90;;;;;;5024099;28;20384;-73
2022/02/09 14:59:02;;;;;;;3.25;2.50;;;9.50;99.90;;;;;;5018932;28;20031;-72
2022/02/09 15:01:38;;;;;;;4.35;2.88;;;9.30;99.90;;;;;;5031959;28;20045;-73
2022/02/09 15:06:56;;;;;;;4.57;2.53;;;9.20;99.90;;;;;;5033199;28;20060;-73
2022/02/09 15:09:38;;;;;;;2.60;2.40;;;9.10;99.90;;;;;;5033120;28;20021;-73
2022/02/09 15:12:17;;;;;;;2.55;2.30;;;9.10;99.90;;;;;;5005553;28;20033;-74
2022/02/09 15:20:40;;;;;;;3.33;2.55;;;9.00;99.90;;;;;;5031735;28;20171;-73
2022/02/09 15:23:00;;;;;;;2.85;2.45;;;8.90;99.90;;;;;;5032694;28;20040;-73
2022/02/09 15:25:31;;;;;;;3.67;2.55;;;8.90;99.90;;;;;;5032857;28;20029;-73
2022/02/09 15:27:59;;;;;;;4.82;2.78;;;8.80;99.90;;;;;;5031427;28;20021;-72
2022/02/09 15:30:26;;;;;;;4.53;2.80;;;8.80;99.90;;;;;;5032597;28;20151;-72
2022/02/09 15:32:54;;;;;;;4.60;2.85;;;8.90;99.90;;;;;;5031377;28;20033;-72
2022/02/09 15:35:30;;;;;;;3.10;2.60;;;9.10;99.90;;;;;;5032508;28;20383;-73
2022/02/09 15:38:09;;;;;;;3.72;2.30;;;9.20;99.90;;;;;;5024627;28;20026;-72
2022/02/09 15:40:50;;;;;;;5.55;3.17;;;9.20;99.90;;;;;;5018344;28;20386;-73
2022/02/09 15:43:28;;;;;;;5.10;3.22;;;9.10;99.90;;;;;;5032569;28;20033;-73
2022/02/09 16:23:51;;;;;;;7.97;4.95;;;8.10;99.90;;;;;;5031454;28;20032;-73
2022/02/09 16:34:55;;;;;;;12.23;8.18;;;7.50;99.90;;;;;;5011917;28;20127;-73
2022/02/09 16:37:41;;;;;;;16.70;10.88;;;7.40;99.90;;;;;;5011247;28;20029;-74
2022/02/09 16:44:19;;;;;;;7.03;5.22;;;7.20;99.90;;;;;;5018400;28;20103;-74
2022/02/09 16:45:56;;;;;;;7.65;4.75;;;7.10;99.90;;;;;;5009042;28;20033;-74
2022/02/09 16:48:23;;;;;;;7.85;5.82;;;6.90;99.90;;;;;;5018225;28;20109;-72
2022/02/09 16:50:50;;;;;;;6.20;4.50;;;6.90;99.90;;;;;;5010896;28;20019;-73
2022/02/09 16:54:06;;;;;;;7.57;5.65;;;6.80;99.90;;;;;;5011147;28;20427;-74
2022/02/09 17:20:17;;;;;;;13.60;8.57;;;6.40;99.90;;;;;;5010787;28;20053;-73
2022/02/09 17:22:43;;;;;;;7.50;5.53;;;6.40;99.90;;;;;;5023661;28;20483;-74
2022/02/09 17:25:08;;;;;;;12.65;7.80;;;6.40;99.90;;;;;;5017466;28;20042;-74
2022/02/09 17:27:34;;;;;;;15.60;8.63;;;6.30;99.90;;;;;;5015129;28;20028;-73
2022/02/09 17:30:31;;;;;;;16.17;9.60;;;6.30;99.90;;;;;;5017194;28;20570;-73
2022/02/09 17:33:08;;;;;;;18.83;10.13;;;6.20;99.90;;;;;;5007095;28;20493;-74
2022/02/09 17:35:46;;;;;;;16.10;10.07;;;6.00;99.90;;;;;;5014430;28;20029;-74
2022/02/09 17:57:01;;;;;;;7.95;6.47;;;5.30;99.90;;;;;;5015116;28;20399;-73
2022/02/09 17:59:30;;;;;;;10.15;7.97;;;5.20;99.90;;;;;;5018783;28;20022;-73
2022/02/09 18:01:56;;;;;;;7.95;6.60;;;5.10;99.90;;;;;;5019704;28;20079;-73
2022/02/09 18:04:23;;;;;;;12.40;8.15;;;5.10;99.90;;;;;;5026126;28;20364;-73
2022/02/09 18:07:04;;;;;;;20.85;16.95;;;5.00;99.90;;;;;;5015572;28;20662;-73
2022/02/09 18:09:41;;;;;;;13.00;9.35;;;4.60;99.90;;;;;;5021865;28;20021;-74
2022/02/09 18:15:01;;;;;;;12.85;10.45;;;4.60;99.90;;;;;;5021875;28;20029;-73
2022/02/09 18:31:22;;;;;;;14.57;11.95;;;4.60;99.90;;;;;;5018818;28;20507;-74
2022/02/09 18:34:05;;;;;;;18.02;15.15;;;4.40;99.90;;;;;;5018395;28;20029;-73
2022/02/09 18:42:43;;;;;;;15.57;11.90;;;4.50;99.90;;;;;;5025537;28;20484;-74
2022/02/09 18:47:40;;;;;;;16.13;13.35;;;4.70;99.90;;;;;;5016776;28;20030;-73
2022/02/09 19:03:32;;;;;;;13.20;11.80;;;5.50;99.90;;;;;;5027987;28;20084;-74
2022/02/09 19:06:03;;;;;;;12.77;11.32;;;5.60;99.90;;;;;;5010927;28;20025;-73
2022/02/09 19:17:02;;;;;;;16.73;13.85;;;5.70;99.90;;;;;;5019006;28;20040;-73
2022/02/09 19:48:38;;;;;;;12.75;11.45;;;4.60;99.90;;;;;;5013126;28;20041;-74
2022/02/09 19:54:06;;;;;;;13.02;11.68;;;4.70;99.90;;;;;;5012394;28;20053;-74
2022/02/09 19:56:34;;;;;;;17.73;14.65;;;4.80;99.90;;;;;;5015527;28;20026;-74
2022/02/09 19:59:03;;;;;;;16.25;14.05;;;4.80;99.90;;;;;;5016795;28;20859;-74
2022/02/09 20:01:38;;;;;;;15.73;13.05;;;4.80;99.90;;;;;;5025414;28;20025;-74
2022/02/09 20:04:06;;;;;;;14.88;13.30;;;4.60;99.90;;;;;;5016612;28;20029;-74
2022/02/09 20:06:32;;;;;;;17.83;14.57;;;4.80;99.90;;;;;;5014171;28;20018;-74
2022/02/09 20:08:57;;;;;;;16.00;13.85;;;4.70;99.90;;;;;;5013648;28;20049;-74
2022/02/09 20:11:23;;;;;;;15.75;14.15;;;4.80;99.90;;;;;;5011394;28;20464;-74
2022/02/09 20:13:52;;;;;;;15.57;13.20;;;4.70;99.90;;;;;;5023582;28;20033;-74
2022/02/09 20:16:20;;;;;;;15.45;13.85;;;4.70;99.90;;;;;;5012320;28;20022;-74
2022/02/09 20:18:46;;;;;;;15.35;13.77;;;4.70;99.90;;;;;;5016633;28;20018;-74
2022/02/09 20:21:11;;;;;;;16.40;14.57;;;4.70;99.90;;;;;;5016881;28;21204;-74
2022/02/09 20:23:37;;;;;;;15.93;13.95;;;4.60;99.90;;;;;;5017558;28;20026;-75
2022/02/09 20:26:07;;;;;;;15.88;13.50;;;4.60;99.90;;;;;;5013411;28;20026;-74
2022/02/09 20:28:33;;;;;;;14.75;13.15;;;4.50;99.90;;;;;;5024939;28;20442;-75
2022/02/09 20:31:05;;;;;;;16.85;13.98;;;4.50;99.90;;;;;;5021397;28;20091;-74
2022/02/09 20:33:36;;;;;;;13.93;12.35;;;4.50;99.90;;;;;;5021699;28;20058;-74
2022/02/09 20:36:07;;;;;;;16.27;13.20;;;4.50;99.90;;;;;;5020539;28;20025;-74
2022/02/09 20:38:34;;;;;;;15.35;12.43;;;4.40;99.90;;;;;;5017600;28;20014;-74
2022/02/09 20:41:04;;;;;;;15.90;13.18;;;4.50;99.90;;;;;;5013076;28;20034;-74
2022/02/09 20:43:33;;;;;;;16.20;13.60;;;4.40;99.90;;;;;;5014629;28;20026;-74
2022/02/09 20:46:04;;;;;;;14.38;12.52;;;4.40;99.90;;;;;;5012919;28;20436;-74
2022/02/09 20:48:34;;;;;;;13.98;12.35;;;4.30;99.90;;;;;;5014143;28;20046;-74
2022/02/09 20:51:01;;;;;;;14.88;13.02;;;4.40;99.90;;;;;;5034044;28;20060;-74
2022/02/09 20:53:27;;;;;;;18.10;13.70;;;4.30;99.90;;;;;;5022551;28;20080;-74
2022/02/09 20:55:56;;;;;;;18.77;15.45;;;4.30;99.90;;;;;;5015685;28;20040;-74
2022/02/09 20:58:23;;;;;;;20.05;15.68;;;4.30;99.90;;;;;;5018412;28;20028;-74
2022/02/09 21:06:04;;;;;;;21.65;16.98;;;4.20;99.90;;;;;;5015993;28;20029;-74
2022/02/09 21:13:53;;;;;;;24.30;21.05;;;4.00;99.90;;;;;;5025155;28;20080;-74
2022/02/09 21:16:30;;;;;;;21.48;18.48;;;3.90;99.90;;;;;;5022845;28;20053;-74
2022/02/09 21:27:21;;;;;;;18.83;16.45;;;3.90;99.90;;;;;;5020283;28;20027;-74
2022/02/09 21:52:08;;;;;;;19.00;16.23;;;3.70;99.90;;;;;;5018570;28;20068;-73
2022/02/09 21:57:12;;;;;;;19.57;16.33;;;3.60;99.90;;;;;;5021009;28;19936;-74
2022/02/09 22:06:06;;;;;;;19.25;15.75;;;3.50;99.90;;;;;;5021040;28;20026;-73
2022/02/09 22:26:36;;;;;;;18.65;15.00;;;3.80;99.90;;;;;;5016975;28;20108;-74
2022/02/09 22:48:16;;;;;;;18.52;13.23;;;3.60;99.90;;;;;;5018266;28;20043;-75
2022/02/09 22:50:53;;;;;;;15.23;12.63;;;3.50;99.90;;;;;;5024950;28;20025;-74
2022/02/09 22:56:04;;;;;;;16.73;13.60;;;3.30;99.90;;;;;;5020077;28;20117;-75
2022/02/09 22:58:29;;;;;;;19.98;14.27;;;3.30;99.90;;;;;;5015853;28;20388;-75
2022/02/09 23:06:24;;;;;;;19.20;14.52;;;3.30;99.90;;;;;;4986302;28;20041;-74
2022/02/09 23:11:45;;;;;;;20.08;15.05;;;3.40;99.90;;;;;;5008059;28;20022;-74
